Decoded Metar for EPMO ( in ) (IATA:) | Meteo·Mobile Aviation Weather
aviador You're here:

EPMO Decoded Metar

in
Report Time2019-09-17 00:30:00
UTC Time2019-09-17 00:44:46
Flight Rules vfr VFR
Wind260° at 09 kt
W.Decomp.*RWY 26: 9.0 kt HW 0 kt LCW
Visibility9999 m
Phenomena:N/A
Clouds:N/A
Expected CloudBase > 1,600 ft AGL from Temp-Dew spread
CeilingNone
Temp09°C
Dew Point05°C (76% RH)
AAT4.6°C
QNH1012 hPa
Raw Report
EPMO 170030Z 26009KT CAVOK 09/05 Q1012=

Extra information for EPMO:More info

Social comments